sensor_id;sensor_type;location;lat;lon;timestamp;P1;durP1;ratioP1;P2;durP2;ratioP2
5465;SDS011;2755;50.728;7.108;2022-12-17T00:01:59;44.47;;;19.35;;
5465;SDS011;2755;50.728;7.108;2022-12-17T00:04:43;39.45;;;16.30;;
5465;SDS011;2755;50.728;7.108;2022-12-17T00:07:28;38.30;;;15.13;;
5465;SDS011;2755;50.728;7.108;2022-12-17T00:10:12;52.13;;;19.00;;
5465;SDS011;2755;50.728;7.108;2022-12-17T00:12:56;37.08;;;15.30;;
5465;SDS011;2755;50.728;7.108;2022-12-17T00:15:40;36.80;;;14.27;;
5465;SDS011;2755;50.728;7.108;2022-12-17T00:18:24;38.72;;;16.45;;
5465;SDS011;2755;50.728;7.108;2022-12-17T00:21:09;55.80;;;17.20;;
5465;SDS011;2755;50.728;7.108;2022-12-17T00:23:53;38.55;;;15.63;;
5465;SDS011;2755;50.728;7.108;2022-12-17T00:26:37;37.80;;;16.85;;
5465;SDS011;2755;50.728;7.108;2022-12-17T00:29:21;52.90;;;19.20;;
5465;SDS011;2755;50.728;7.108;2022-12-17T00:32:05;70.15;;;24.45;;
5465;SDS011;2755;50.728;7.108;2022-12-17T00:34:50;60.67;;;21.30;;
5465;SDS011;2755;50.728;7.108;2022-12-17T00:37:36;44.63;;;18.50;;
5465;SDS011;2755;50.728;7.108;2022-12-17T00:40:20;52.65;;;20.48;;
5465;SDS011;2755;50.728;7.108;2022-12-17T00:43:05;69.30;;;23.45;;
5465;SDS011;2755;50.728;7.108;2022-12-17T00:45:54;57.53;;;22.52;;
5465;SDS011;2755;50.728;7.108;2022-12-17T00:48:38;52.97;;;21.20;;
5465;SDS011;2755;50.728;7.108;2022-12-17T00:51:23;70.25;;;23.70;;
5465;SDS011;2755;50.728;7.108;2022-12-17T00:54:07;54.05;;;21.48;;
5465;SDS011;2755;50.728;7.108;2022-12-17T00:56:51;55.53;;;21.40;;
5465;SDS011;2755;50.728;7.108;2022-12-17T00:59:36;63.47;;;22.23;;
5465;SDS011;2755;50.728;7.108;2022-12-17T01:02:20;62.88;;;21.95;;
5465;SDS011;2755;50.728;7.108;2022-12-17T01:05:05;64.85;;;22.85;;
5465;SDS011;2755;50.728;7.108;2022-12-17T01:07:50;61.28;;;21.00;;
5465;SDS011;2755;50.728;7.108;2022-12-17T01:10:34;70.97;;;22.67;;
5465;SDS011;2755;50.728;7.108;2022-12-17T01:13:20;54.05;;;20.77;;
5465;SDS011;2755;50.728;7.108;2022-12-17T01:16:13;59.28;;;20.23;;
5465;SDS011;2755;50.728;7.108;2022-12-17T01:18:57;58.92;;;20.95;;
5465;SDS011;2755;50.728;7.108;2022-12-17T01:21:42;59.28;;;19.38;;
5465;SDS011;2755;50.728;7.108;2022-12-17T01:24:27;55.47;;;20.08;;
5465;SDS011;2755;50.728;7.108;2022-12-17T01:27:11;50.83;;;20.05;;
5465;SDS011;2755;50.728;7.108;2022-12-17T01:29:55;55.25;;;21.80;;
5465;SDS011;2755;50.728;7.108;2022-12-17T01:32:39;56.42;;;22.27;;
5465;SDS011;2755;50.728;7.108;2022-12-17T01:35:23;47.78;;;18.60;;
5465;SDS011;2755;50.728;7.108;2022-12-17T01:38:11;53.55;;;21.08;;
5465;SDS011;2755;50.728;7.108;2022-12-17T01:40:56;49.75;;;20.00;;
5465;SDS011;2755;50.728;7.108;2022-12-17T01:43:40;35.30;;;16.15;;
5465;SDS011;2755;50.728;7.108;2022-12-17T01:46:24;43.22;;;18.98;;
5465;SDS011;2755;50.728;7.108;2022-12-17T01:49:12;46.67;;;18.02;;
5465;SDS011;2755;50.728;7.108;2022-12-17T01:51:57;39.70;;;18.92;;
5465;SDS011;2755;50.728;7.108;2022-12-17T01:54:43;43.75;;;17.95;;
5465;SDS011;2755;50.728;7.108;2022-12-17T01:57:27;50.35;;;17.70;;
5465;SDS011;2755;50.728;7.108;2022-12-17T02:00:13;59.35;;;19.55;;
5465;SDS011;2755;50.728;7.108;2022-12-17T02:02:58;40.63;;;17.92;;
5465;SDS011;2755;50.728;7.108;2022-12-17T02:11:16;66.82;;;20.95;;
5465;SDS011;2755;50.728;7.108;2022-12-17T02:17:12;57.60;;;19.60;;
5465;SDS011;2755;50.728;7.108;2022-12-17T02:23:04;51.92;;;19.45;;
5465;SDS011;2755;50.728;7.108;2022-12-17T02:26:16;44.85;;;16.40;;
5465;SDS011;2755;50.728;7.108;2022-12-17T02:29:18;56.70;;;17.70;;
5465;SDS011;2755;50.728;7.108;2022-12-17T02:32:04;49.50;;;17.35;;
5465;SDS011;2755;50.728;7.108;2022-12-17T02:34:49;46.03;;;18.00;;
5465;SDS011;2755;50.728;7.108;2022-12-17T02:37:35;39.60;;;14.52;;
5465;SDS011;2755;50.728;7.108;2022-12-17T02:40:19;40.60;;;15.40;;
5465;SDS011;2755;50.728;7.108;2022-12-17T02:43:06;36.78;;;14.68;;
5465;SDS011;2755;50.728;7.108;2022-12-17T02:45:52;31.70;;;14.85;;
5465;SDS011;2755;50.728;7.108;2022-12-17T02:48:38;31.13;;;13.80;;
5465;SDS011;2755;50.728;7.108;2022-12-17T02:51:21;36.00;;;13.80;;
5465;SDS011;2755;50.728;7.108;2022-12-17T02:54:08;44.75;;;15.73;;
5465;SDS011;2755;50.728;7.108;2022-12-17T02:56:52;51.53;;;17.92;;
5465;SDS011;2755;50.728;7.108;2022-12-17T02:59:37;50.00;;;18.45;;
5465;SDS011;2755;50.728;7.108;2022-12-17T03:02:21;40.85;;;16.58;;
5465;SDS011;2755;50.728;7.108;2022-12-17T03:05:05;50.05;;;19.10;;
5465;SDS011;2755;50.728;7.108;2022-12-17T03:07:49;49.45;;;18.52;;
5465;SDS011;2755;50.728;7.108;2022-12-17T03:10:33;60.00;;;20.23;;
5465;SDS011;2755;50.728;7.108;2022-12-17T03:13:22;60.00;;;19.67;;
5465;SDS011;2755;50.728;7.108;2022-12-17T03:16:12;64.97;;;21.05;;
5465;SDS011;2755;50.728;7.108;2022-12-17T03:18:58;66.88;;;19.70;;
5465;SDS011;2755;50.728;7.108;2022-12-17T03:21:42;59.33;;;19.27;;
5465;SDS011;2755;50.728;7.108;2022-12-17T03:24:26;56.08;;;17.45;;
5465;SDS011;2755;50.728;7.108;2022-12-17T03:27:11;54.03;;;19.23;;
5465;SDS011;2755;50.728;7.108;2022-12-17T03:29:55;49.00;;;17.98;;
5465;SDS011;2755;50.728;7.108;2022-12-17T03:32:39;54.80;;;20.05;;
5465;SDS011;2755;50.728;7.108;2022-12-17T03:35:23;39.13;;;16.48;;
5465;SDS011;2755;50.728;7.108;2022-12-17T03:38:08;62.10;;;20.25;;
5465;SDS011;2755;50.728;7.108;2022-12-17T03:40:53;70.57;;;20.02;;
5465;SDS011;2755;50.728;7.108;2022-12-17T03:43:37;48.85;;;16.73;;
5465;SDS011;2755;50.728;7.108;2022-12-17T03:46:21;51.88;;;18.48;;
5465;SDS011;2755;50.728;7.108;2022-12-17T03:49:05;48.22;;;18.75;;
5465;SDS011;2755;50.728;7.108;2022-12-17T03:51:49;48.70;;;17.13;;
5465;SDS011;2755;50.728;7.108;2022-12-17T03:54:33;50.15;;;16.92;;
5465;SDS011;2755;50.728;7.108;2022-12-17T03:57:17;41.58;;;17.33;;
5465;SDS011;2755;50.728;7.108;2022-12-17T04:00:01;42.35;;;15.52;;
5465;SDS011;2755;50.728;7.108;2022-12-17T04:02:47;57.25;;;18.60;;
5465;SDS011;2755;50.728;7.108;2022-12-17T04:05:30;42.60;;;16.20;;
5465;SDS011;2755;50.728;7.108;2022-12-17T04:08:15;47.10;;;17.63;;
5465;SDS011;2755;50.728;7.108;2022-12-17T04:10:59;46.97;;;16.52;;
5465;SDS011;2755;50.728;7.108;2022-12-17T04:13:43;52.92;;;17.30;;
5465;SDS011;2755;50.728;7.108;2022-12-17T04:16:27;48.42;;;15.82;;
5465;SDS011;2755;50.728;7.108;2022-12-17T04:19:11;40.88;;;15.73;;
5465;SDS011;2755;50.728;7.108;2022-12-17T04:21:55;31.25;;;14.65;;
5465;SDS011;2755;50.728;7.108;2022-12-17T04:24:39;55.50;;;17.83;;
5465;SDS011;2755;50.728;7.108;2022-12-17T04:27:23;34.13;;;15.38;;
5465;SDS011;2755;50.728;7.108;2022-12-17T04:30:08;62.47;;;17.58;;
5465;SDS011;2755;50.728;7.108;2022-12-17T04:32:52;42.47;;;15.25;;
5465;SDS011;2755;50.728;7.108;2022-12-17T04:35:36;41.03;;;15.48;;
5465;SDS011;2755;50.728;7.108;2022-12-17T04:38:20;54.45;;;15.50;;
5465;SDS011;2755;50.728;7.108;2022-12-17T04:41:04;42.10;;;15.68;;
5465;SDS011;2755;50.728;7.108;2022-12-17T04:44:05;38.03;;;15.10;;
5465;SDS011;2755;50.728;7.108;2022-12-17T04:46:49;39.78;;;14.32;;
5465;SDS011;2755;50.728;7.108;2022-12-17T04:49:33;42.17;;;15.30;;
5465;SDS011;2755;50.728;7.108;2022-12-17T04:52:18;37.15;;;13.93;;
5465;SDS011;2755;50.728;7.108;2022-12-17T04:55:02;47.38;;;17.17;;
5465;SDS011;2755;50.728;7.108;2022-12-17T04:57:46;36.95;;;13.80;;
5465;SDS011;2755;50.728;7.108;2022-12-17T05:00:30;42.78;;;16.40;;
5465;SDS011;2755;50.728;7.108;2022-12-17T05:03:15;48.15;;;17.25;;
5465;SDS011;2755;50.728;7.108;2022-12-17T05:05:59;45.40;;;15.00;;
5465;SDS011;2755;50.728;7.108;2022-12-17T05:08:44;34.90;;;15.05;;
5465;SDS011;2755;50.728;7.108;2022-12-17T05:11:28;44.58;;;15.27;;
5465;SDS011;2755;50.728;7.108;2022-12-17T05:14:16;44.33;;;16.75;;
5465;SDS011;2755;50.728;7.108;2022-12-17T05:17:00;38.22;;;15.32;;
5465;SDS011;2755;50.728;7.108;2022-12-17T05:19:44;47.45;;;15.80;;
5465;SDS011;2755;50.728;7.108;2022-12-17T05:22:28;46.80;;;15.70;;
5465;SDS011;2755;50.728;7.108;2022-12-17T05:25:12;38.00;;;13.70;;
5465;SDS011;2755;50.728;7.108;2022-12-17T05:27:56;37.83;;;15.52;;
5465;SDS011;2755;50.728;7.108;2022-12-17T05:30:41;43.33;;;16.05;;
5465;SDS011;2755;50.728;7.108;2022-12-17T05:33:25;40.67;;;14.60;;
5465;SDS011;2755;50.728;7.108;2022-12-17T05:36:12;37.65;;;15.82;;
5465;SDS011;2755;50.728;7.108;2022-12-17T05:38:56;44.00;;;16.17;;
5465;SDS011;2755;50.728;7.108;2022-12-17T05:41:40;34.97;;;12.70;;
5465;SDS011;2755;50.728;7.108;2022-12-17T05:44:28;41.80;;;13.90;;
5465;SDS011;2755;50.728;7.108;2022-12-17T05:47:13;32.95;;;13.13;;
5465;SDS011;2755;50.728;7.108;2022-12-17T05:49:57;36.60;;;13.93;;
5465;SDS011;2755;50.728;7.108;2022-12-17T05:52:40;48.17;;;15.93;;
5465;SDS011;2755;50.728;7.108;2022-12-17T05:55:24;37.90;;;14.30;;
5465;SDS011;2755;50.728;7.108;2022-12-17T05:58:09;33.28;;;13.15;;
5465;SDS011;2755;50.728;7.108;2022-12-17T06:00:57;36.08;;;13.85;;
5465;SDS011;2755;50.728;7.108;2022-12-17T06:03:43;31.48;;;13.77;;
5465;SDS011;2755;50.728;7.108;2022-12-17T06:06:27;35.03;;;12.73;;
5465;SDS011;2755;50.728;7.108;2022-12-17T06:09:12;40.70;;;13.93;;
5465;SDS011;2755;50.728;7.108;2022-12-17T06:11:56;38.38;;;14.95;;
5465;SDS011;2755;50.728;7.108;2022-12-17T06:14:40;38.10;;;13.90;;
5465;SDS011;2755;50.728;7.108;2022-12-17T06:17:24;35.78;;;13.52;;
5465;SDS011;2755;50.728;7.108;2022-12-17T06:20:08;24.55;;;11.27;;
5465;SDS011;2755;50.728;7.108;2022-12-17T06:23:06;33.92;;;12.65;;
5465;SDS011;2755;50.728;7.108;2022-12-17T06:25:53;40.92;;;13.88;;
5465;SDS011;2755;50.728;7.108;2022-12-17T06:28:38;30.15;;;12.82;;
5465;SDS011;2755;50.728;7.108;2022-12-17T06:31:23;36.92;;;12.77;;
5465;SDS011;2755;50.728;7.108;2022-12-17T06:34:07;37.15;;;13.40;;
5465;SDS011;2755;50.728;7.108;2022-12-17T06:36:51;29.50;;;12.45;;
5465;SDS011;2755;50.728;7.108;2022-12-17T06:39:35;29.92;;;11.80;;
5465;SDS011;2755;50.728;7.108;2022-12-17T06:42:19;35.83;;;13.35;;
5465;SDS011;2755;50.728;7.108;2022-12-17T06:45:21;34.13;;;13.10;;
5465;SDS011;2755;50.728;7.108;2022-12-17T06:48:05;37.72;;;11.35;;
5465;SDS011;2755;50.728;7.108;2022-12-17T06:50:54;24.67;;;10.07;;
5465;SDS011;2755;50.728;7.108;2022-12-17T06:53:40;18.42;;;8.27;;
5465;SDS011;2755;50.728;7.108;2022-12-17T06:56:24;23.40;;;9.52;;
5465;SDS011;2755;50.728;7.108;2022-12-17T06:59:09;32.30;;;12.13;;
5465;SDS011;2755;50.728;7.108;2022-12-17T07:01:53;27.75;;;11.82;;
5465;SDS011;2755;50.728;7.108;2022-12-17T07:04:36;25.20;;;10.30;;
5465;SDS011;2755;50.728;7.108;2022-12-17T07:07:21;27.00;;;10.55;;
5465;SDS011;2755;50.728;7.108;2022-12-17T07:10:05;33.33;;;13.20;;
5465;SDS011;2755;50.728;7.108;2022-12-17T07:12:50;27.95;;;12.30;;
5465;SDS011;2755;50.728;7.108;2022-12-17T07:15:34;25.52;;;11.25;;
5465;SDS011;2755;50.728;7.108;2022-12-17T07:18:18;28.95;;;12.00;;
5465;SDS011;2755;50.728;7.108;2022-12-17T07:21:02;27.92;;;12.13;;
5465;SDS011;2755;50.728;7.108;2022-12-17T07:23:46;29.45;;;11.73;;
5465;SDS011;2755;50.728;7.108;2022-12-17T07:26:30;28.35;;;12.00;;
5465;SDS011;2755;50.728;7.108;2022-12-17T07:29:14;28.63;;;10.85;;
5465;SDS011;2755;50.728;7.108;2022-12-17T07:32:12;18.40;;;8.55;;
5465;SDS011;2755;50.728;7.108;2022-12-17T07:34:57;28.00;;;11.65;;
5465;SDS011;2755;50.728;7.108;2022-12-17T07:37:41;19.90;;;10.25;;
5465;SDS011;2755;50.728;7.108;2022-12-17T07:40:25;33.20;;;12.25;;
5465;SDS011;2755;50.728;7.108;2022-12-17T07:43:12;25.60;;;12.30;;
5465;SDS011;2755;50.728;7.108;2022-12-17T07:46:00;30.83;;;12.15;;
5465;SDS011;2755;50.728;7.108;2022-12-17T07:48:44;31.55;;;12.88;;
5465;SDS011;2755;50.728;7.108;2022-12-17T07:51:28;29.63;;;12.57;;
5465;SDS011;2755;50.728;7.108;2022-12-17T07:54:12;32.83;;;13.70;;
5465;SDS011;2755;50.728;7.108;2022-12-17T07:56:56;31.58;;;13.80;;
5465;SDS011;2755;50.728;7.108;2022-12-17T07:59:40;34.83;;;13.05;;
5465;SDS011;2755;50.728;7.108;2022-12-17T08:02:24;33.65;;;11.95;;
5465;SDS011;2755;50.728;7.108;2022-12-17T08:05:08;30.88;;;13.45;;
5465;SDS011;2755;50.728;7.108;2022-12-17T08:07:52;28.70;;;11.90;;
5465;SDS011;2755;50.728;7.108;2022-12-17T08:10:36;40.58;;;14.77;;
5465;SDS011;2755;50.728;7.108;2022-12-17T08:13:20;27.67;;;13.05;;
5465;SDS011;2755;50.728;7.108;2022-12-17T08:16:04;31.48;;;13.23;;
5465;SDS011;2755;50.728;7.108;2022-12-17T08:18:49;35.67;;;13.57;;
5465;SDS011;2755;50.728;7.108;2022-12-17T08:21:33;35.85;;;15.15;;
5465;SDS011;2755;50.728;7.108;2022-12-17T08:24:17;39.00;;;14.07;;
5465;SDS011;2755;50.728;7.108;2022-12-17T08:27:02;37.97;;;14.27;;
5465;SDS011;2755;50.728;7.108;2022-12-17T08:30:00;38.25;;;12.75;;
5465;SDS011;2755;50.728;7.108;2022-12-17T08:32:44;28.40;;;13.38;;
5465;SDS011;2755;50.728;7.108;2022-12-17T08:35:28;30.90;;;13.65;;
5465;SDS011;2755;50.728;7.108;2022-12-17T08:38:12;34.15;;;15.00;;
5465;SDS011;2755;50.728;7.108;2022-12-17T08:40:58;38.08;;;13.10;;
5465;SDS011;2755;50.728;7.108;2022-12-17T08:43:43;30.40;;;13.95;;
5465;SDS011;2755;50.728;7.108;2022-12-17T08:46:27;31.60;;;13.90;;
5465;SDS011;2755;50.728;7.108;2022-12-17T08:49:11;37.28;;;14.68;;
5465;SDS011;2755;50.728;7.108;2022-12-17T08:51:56;35.15;;;14.50;;
5465;SDS011;2755;50.728;7.108;2022-12-17T08:54:40;44.92;;;15.88;;
5465;SDS011;2755;50.728;7.108;2022-12-17T08:57:24;31.67;;;13.55;;
5465;SDS011;2755;50.728;7.108;2022-12-17T09:00:08;37.05;;;15.70;;
5465;SDS011;2755;50.728;7.108;2022-12-17T09:02:59;37.83;;;14.70;;
5465;SDS011;2755;50.728;7.108;2022-12-17T09:05:44;42.30;;;15.27;;
5465;SDS011;2755;50.728;7.108;2022-12-17T09:08:29;41.33;;;14.05;;
5465;SDS011;2755;50.728;7.108;2022-12-17T09:11:13;32.83;;;14.98;;
5465;SDS011;2755;50.728;7.108;2022-12-17T09:13:58;40.50;;;16.27;;
5465;SDS011;2755;50.728;7.108;2022-12-17T09:16:42;45.22;;;16.77;;
5465;SDS011;2755;50.728;7.108;2022-12-17T09:19:26;41.65;;;16.13;;
5465;SDS011;2755;50.728;7.108;2022-12-17T09:22:10;37.67;;;15.57;;
5465;SDS011;2755;50.728;7.108;2022-12-17T09:24:56;51.92;;;17.55;;
5465;SDS011;2755;50.728;7.108;2022-12-17T09:27:40;35.08;;;15.48;;
5465;SDS011;2755;50.728;7.108;2022-12-17T09:30:25;36.28;;;14.70;;
5465;SDS011;2755;50.728;7.108;2022-12-17T09:33:15;41.75;;;15.10;;
5465;SDS011;2755;50.728;7.108;2022-12-17T09:36:03;38.78;;;13.77;;
5465;SDS011;2755;50.728;7.108;2022-12-17T09:38:48;31.40;;;14.95;;
5465;SDS011;2755;50.728;7.108;2022-12-17T09:41:39;54.50;;;15.75;;
5465;SDS011;2755;50.728;7.108;2022-12-17T09:44:42;28.80;;;12.95;;
5465;SDS011;2755;50.728;7.108;2022-12-17T09:50:28;30.50;;;12.35;;
5465;SDS011;2755;50.728;7.108;2022-12-17T09:53:22;30.38;;;13.05;;
5465;SDS011;2755;50.728;7.108;2022-12-17T09:56:22;28.83;;;13.07;;
5465;SDS011;2755;50.728;7.108;2022-12-17T09:59:12;32.40;;;12.63;;
5465;SDS011;2755;50.728;7.108;2022-12-17T10:05:12;34.08;;;13.25;;
5465;SDS011;2755;50.728;7.108;2022-12-17T10:08:03;26.60;;;13.15;;
5465;SDS011;2755;50.728;7.108;2022-12-17T10:10:49;23.98;;;11.65;;
5465;SDS011;2755;50.728;7.108;2022-12-17T10:13:33;24.70;;;11.40;;
5465;SDS011;2755;50.728;7.108;2022-12-17T10:19:05;29.17;;;10.75;;
5465;SDS011;2755;50.728;7.108;2022-12-17T10:21:54;28.83;;;10.43;;
5465;SDS011;2755;50.728;7.108;2022-12-17T10:24:48;29.02;;;11.93;;
5465;SDS011;2755;50.728;7.108;2022-12-17T10:27:32;25.00;;;11.15;;
5465;SDS011;2755;50.728;7.108;2022-12-17T10:30:17;24.08;;;10.60;;
5465;SDS011;2755;50.728;7.108;2022-12-17T10:33:10;31.67;;;12.40;;
5465;SDS011;2755;50.728;7.108;2022-12-17T10:36:01;26.95;;;11.80;;
5465;SDS011;2755;50.728;7.108;2022-12-17T10:38:51;21.25;;;12.27;;
5465;SDS011;2755;50.728;7.108;2022-12-17T10:41:39;26.38;;;12.32;;
5465;SDS011;2755;50.728;7.108;2022-12-17T10:44:28;27.33;;;11.10;;
5465;SDS011;2755;50.728;7.108;2022-12-17T10:47:20;18.35;;;9.88;;
5465;SDS011;2755;50.728;7.108;2022-12-17T10:50:16;19.88;;;10.65;;
5465;SDS011;2755;50.728;7.108;2022-12-17T10:53:02;24.05;;;10.18;;
5465;SDS011;2755;50.728;7.108;2022-12-17T10:55:53;17.48;;;10.13;;
5465;SDS011;2755;50.728;7.108;2022-12-17T10:58:52;24.73;;;10.95;;
5465;SDS011;2755;50.728;7.108;2022-12-17T11:01:40;21.98;;;10.32;;
5465;SDS011;2755;50.728;7.108;2022-12-17T11:07:16;20.95;;;10.00;;
5465;SDS011;2755;50.728;7.108;2022-12-17T11:10:24;19.52;;;9.73;;
5465;SDS011;2755;50.728;7.108;2022-12-17T11:13:12;18.67;;;9.60;;
5465;SDS011;2755;50.728;7.108;2022-12-17T11:16:00;17.13;;;9.05;;
5465;SDS011;2755;50.728;7.108;2022-12-17T11:22:11;17.23;;;9.23;;
5465;SDS011;2755;50.728;7.108;2022-12-17T11:25:21;19.70;;;9.32;;
5465;SDS011;2755;50.728;7.108;2022-12-17T11:28:19;19.75;;;9.65;;
5465;SDS011;2755;50.728;7.108;2022-12-17T11:34:54;22.33;;;9.73;;
5465;SDS011;2755;50.728;7.108;2022-12-17T11:37:25;19.40;;;9.00;;
5465;SDS011;2755;50.728;7.108;2022-12-17T11:40:24;21.92;;;10.13;;
5465;SDS011;2755;50.728;7.108;2022-12-17T11:43:28;18.95;;;9.85;;
5465;SDS011;2755;50.728;7.108;2022-12-17T11:49:35;17.10;;;9.85;;
5465;SDS011;2755;50.728;7.108;2022-12-17T11:58:49;17.55;;;9.65;;
5465;SDS011;2755;50.728;7.108;2022-12-17T12:13:57;19.33;;;9.18;;
5465;SDS011;2755;50.728;7.108;2022-12-17T12:26:57;19.92;;;10.15;;
5465;SDS011;2755;50.728;7.108;2022-12-17T12:30:01;18.58;;;9.82;;
5465;SDS011;2755;50.728;7.108;2022-12-17T12:35:33;17.33;;;8.80;;
5465;SDS011;2755;50.728;7.108;2022-12-17T12:38:26;19.08;;;8.82;;
5465;SDS011;2755;50.728;7.108;2022-12-17T12:44:12;18.20;;;9.73;;
5465;SDS011;2755;50.728;7.108;2022-12-17T12:47:11;19.27;;;9.15;;
5465;SDS011;2755;50.728;7.108;2022-12-17T12:50:09;15.70;;;9.27;;
5465;SDS011;2755;50.728;7.108;2022-12-17T12:53:00;28.38;;;10.57;;
5465;SDS011;2755;50.728;7.108;2022-12-17T12:55:45;19.58;;;9.43;;
5465;SDS011;2755;50.728;7.108;2022-12-17T12:58:30;20.67;;;9.45;;
5465;SDS011;2755;50.728;7.108;2022-12-17T13:01:17;14.68;;;9.35;;
5465;SDS011;2755;50.728;7.108;2022-12-17T13:04:06;16.27;;;9.68;;
5465;SDS011;2755;50.728;7.108;2022-12-17T13:07:04;18.20;;;9.15;;
5465;SDS011;2755;50.728;7.108;2022-12-17T13:19:45;22.97;;;9.83;;
5465;SDS011;2755;50.728;7.108;2022-12-17T13:24:46;21.10;;;10.30;;
5465;SDS011;2755;50.728;7.108;2022-12-17T13:30:19;18.80;;;9.88;;
5465;SDS011;2755;50.728;7.108;2022-12-17T13:43:19;18.42;;;9.15;;
5465;SDS011;2755;50.728;7.108;2022-12-17T13:45:46;28.52;;;10.98;;
5465;SDS011;2755;50.728;7.108;2022-12-17T13:48:19;12.83;;;7.70;;
5465;SDS011;2755;50.728;7.108;2022-12-17T13:50:53;19.70;;;10.30;;
5465;SDS011;2755;50.728;7.108;2022-12-17T13:53:25;16.90;;;9.48;;
5465;SDS011;2755;50.728;7.108;2022-12-17T13:55:52;18.00;;;9.13;;
5465;SDS011;2755;50.728;7.108;2022-12-17T13:58:20;20.73;;;11.35;;
5465;SDS011;2755;50.728;7.108;2022-12-17T14:01:02;22.20;;;11.07;;
5465;SDS011;2755;50.728;7.108;2022-12-17T14:03:35;22.40;;;10.00;;
5465;SDS011;2755;50.728;7.108;2022-12-17T14:06:02;20.40;;;9.93;;
5465;SDS011;2755;50.728;7.108;2022-12-17T14:08:31;16.60;;;9.00;;
5465;SDS011;2755;50.728;7.108;2022-12-17T14:10:58;19.40;;;10.07;;
5465;SDS011;2755;50.728;7.108;2022-12-17T14:13:44;19.98;;;9.65;;
5465;SDS011;2755;50.728;7.108;2022-12-17T14:16:15;31.40;;;11.68;;
5465;SDS011;2755;50.728;7.108;2022-12-17T14:18:48;25.35;;;11.73;;
5465;SDS011;2755;50.728;7.108;2022-12-17T14:21:20;19.67;;;10.27;;
5465;SDS011;2755;50.728;7.108;2022-12-17T14:23:47;25.15;;;10.93;;
5465;SDS011;2755;50.728;7.108;2022-12-17T14:26:14;21.10;;;11.45;;
5465;SDS011;2755;50.728;7.108;2022-12-17T14:28:49;21.95;;;11.68;;
5465;SDS011;2755;50.728;7.108;2022-12-17T14:31:18;22.48;;;11.18;;
5465;SDS011;2755;50.728;7.108;2022-12-17T14:33:46;33.13;;;12.00;;
5465;SDS011;2755;50.728;7.108;2022-12-17T14:36:24;22.52;;;9.68;;
5465;SDS011;2755;50.728;7.108;2022-12-17T14:38:53;22.37;;;10.60;;
5465;SDS011;2755;50.728;7.108;2022-12-17T14:41:19;24.85;;;11.25;;
5465;SDS011;2755;50.728;7.108;2022-12-17T14:44:04;20.70;;;10.25;;
5465;SDS011;2755;50.728;7.108;2022-12-17T14:46:31;19.58;;;10.88;;
5465;SDS011;2755;50.728;7.108;2022-12-17T14:48:58;17.30;;;10.38;;
5465;SDS011;2755;50.728;7.108;2022-12-17T14:51:37;21.63;;;11.73;;
5465;SDS011;2755;50.728;7.108;2022-12-17T14:54:49;18.98;;;11.23;;
5465;SDS011;2755;50.728;7.108;2022-12-17T14:56:50;23.80;;;11.50;;
5465;SDS011;2755;50.728;7.108;2022-12-17T15:01:59;25.70;;;11.95;;
5465;SDS011;2755;50.728;7.108;2022-12-17T15:04:37;26.13;;;12.25;;
5465;SDS011;2755;50.728;7.108;2022-12-17T15:07:04;24.20;;;11.68;;
5465;SDS011;2755;50.728;7.108;2022-12-17T15:09:35;23.48;;;11.00;;
5465;SDS011;2755;50.728;7.108;2022-12-17T15:12:01;29.98;;;13.52;;
5465;SDS011;2755;50.728;7.108;2022-12-17T15:14:27;23.50;;;11.82;;
5465;SDS011;2755;50.728;7.108;2022-12-17T15:16:53;28.17;;;12.65;;
5465;SDS011;2755;50.728;7.108;2022-12-17T15:19:20;21.50;;;11.10;;
5465;SDS011;2755;50.728;7.108;2022-12-17T15:21:46;28.70;;;12.90;;
5465;SDS011;2755;50.728;7.108;2022-12-17T15:24:19;21.80;;;11.95;;
5465;SDS011;2755;50.728;7.108;2022-12-17T15:26:45;23.48;;;11.82;;
5465;SDS011;2755;50.728;7.108;2022-12-17T15:29:11;24.20;;;12.30;;
5465;SDS011;2755;50.728;7.108;2022-12-17T15:31:37;27.00;;;11.43;;
5465;SDS011;2755;50.728;7.108;2022-12-17T15:34:03;21.00;;;11.40;;
5465;SDS011;2755;50.728;7.108;2022-12-17T15:36:29;29.83;;;12.70;;
5465;SDS011;2755;50.728;7.108;2022-12-17T15:38:56;26.30;;;11.88;;
5465;SDS011;2755;50.728;7.108;2022-12-17T15:41:22;19.98;;;9.45;;
5465;SDS011;2755;50.728;7.108;2022-12-17T15:44:06;19.23;;;10.98;;
5465;SDS011;2755;50.728;7.108;2022-12-17T15:46:31;23.37;;;11.60;;
5465;SDS011;2755;50.728;7.108;2022-12-17T15:48:57;21.13;;;11.60;;
5465;SDS011;2755;50.728;7.108;2022-12-17T15:51:23;20.73;;;10.27;;
5465;SDS011;2755;50.728;7.108;2022-12-17T15:53:49;28.27;;;11.37;;
5465;SDS011;2755;50.728;7.108;2022-12-17T15:56:19;21.15;;;12.13;;
5465;SDS011;2755;50.728;7.108;2022-12-17T15:58:46;24.85;;;11.73;;
5465;SDS011;2755;50.728;7.108;2022-12-17T16:01:12;22.83;;;12.13;;
5465;SDS011;2755;50.728;7.108;2022-12-17T16:03:38;20.48;;;11.52;;
5465;SDS011;2755;50.728;7.108;2022-12-17T16:06:04;25.88;;;12.15;;
5465;SDS011;2755;50.728;7.108;2022-12-17T16:08:30;23.40;;;12.40;;
5465;SDS011;2755;50.728;7.108;2022-12-17T16:10:55;30.00;;;12.30;;
5465;SDS011;2755;50.728;7.108;2022-12-17T16:13:21;27.50;;;12.40;;
5465;SDS011;2755;50.728;7.108;2022-12-17T16:15:54;25.23;;;12.77;;
5465;SDS011;2755;50.728;7.108;2022-12-17T16:18:21;25.50;;;13.75;;
5465;SDS011;2755;50.728;7.108;2022-12-17T16:20:47;24.60;;;11.48;;
5465;SDS011;2755;50.728;7.108;2022-12-17T16:23:13;25.98;;;12.07;;
5465;SDS011;2755;50.728;7.108;2022-12-17T16:25:39;24.63;;;13.23;;
5465;SDS011;2755;50.728;7.108;2022-12-17T16:28:04;24.17;;;12.57;;
5465;SDS011;2755;50.728;7.108;2022-12-17T16:30:30;26.20;;;12.30;;
5465;SDS011;2755;50.728;7.108;2022-12-17T16:32:57;23.63;;;12.10;;
5465;SDS011;2755;50.728;7.108;2022-12-17T16:35:23;25.10;;;13.25;;
5465;SDS011;2755;50.728;7.108;2022-12-17T16:37:49;29.47;;;13.77;;
5465;SDS011;2755;50.728;7.108;2022-12-17T16:40:14;23.87;;;12.73;;
5465;SDS011;2755;50.728;7.108;2022-12-17T16:42:40;25.57;;;12.13;;
5465;SDS011;2755;50.728;7.108;2022-12-17T16:45:06;26.58;;;12.30;;
5465;SDS011;2755;50.728;7.108;2022-12-17T16:47:32;21.95;;;12.02;;
5465;SDS011;2755;50.728;7.108;2022-12-17T16:49:58;26.53;;;11.57;;
5465;SDS011;2755;50.728;7.108;2022-12-17T16:52:24;23.58;;;11.93;;
5465;SDS011;2755;50.728;7.108;2022-12-17T16:54:49;27.47;;;13.03;;
5465;SDS011;2755;50.728;7.108;2022-12-17T16:57:16;25.38;;;12.73;;
5465;SDS011;2755;50.728;7.108;2022-12-17T16:59:41;26.40;;;12.60;;
5465;SDS011;2755;50.728;7.108;2022-12-17T17:02:13;26.23;;;13.43;;
5465;SDS011;2755;50.728;7.108;2022-12-17T17:04:39;28.27;;;12.77;;
5465;SDS011;2755;50.728;7.108;2022-12-17T17:07:05;27.30;;;12.30;;
5465;SDS011;2755;50.728;7.108;2022-12-17T17:09:31;31.53;;;14.47;;
5465;SDS011;2755;50.728;7.108;2022-12-17T17:11:57;30.33;;;14.60;;
5465;SDS011;2755;50.728;7.108;2022-12-17T17:14:23;24.98;;;11.90;;
5465;SDS011;2755;50.728;7.108;2022-12-17T17:16:50;23.98;;;13.85;;
5465;SDS011;2755;50.728;7.108;2022-12-17T17:19:16;25.48;;;12.52;;
5465;SDS011;2755;50.728;7.108;2022-12-17T17:21:52;26.45;;;12.38;;
5465;SDS011;2755;50.728;7.108;2022-12-17T17:24:18;28.58;;;13.65;;
5465;SDS011;2755;50.728;7.108;2022-12-17T17:26:45;33.83;;;13.50;;
5465;SDS011;2755;50.728;7.108;2022-12-17T17:29:11;20.83;;;11.63;;
5465;SDS011;2755;50.728;7.108;2022-12-17T17:31:37;27.00;;;13.40;;
5465;SDS011;2755;50.728;7.108;2022-12-17T17:34:09;25.10;;;13.80;;
5465;SDS011;2755;50.728;7.108;2022-12-17T17:36:37;29.30;;;13.05;;
5465;SDS011;2755;50.728;7.108;2022-12-17T17:39:03;23.05;;;13.63;;
5465;SDS011;2755;50.728;7.108;2022-12-17T17:41:29;21.73;;;11.97;;
5465;SDS011;2755;50.728;7.108;2022-12-17T17:44:01;30.60;;;12.95;;
5465;SDS011;2755;50.728;7.108;2022-12-17T17:46:29;27.13;;;14.43;;
5465;SDS011;2755;50.728;7.108;2022-12-17T17:48:55;26.30;;;13.55;;
5465;SDS011;2755;50.728;7.108;2022-12-17T17:51:26;26.95;;;13.00;;